sensor_id;sensor_type;location;lat;lon;timestamp;temperature;humidity
42037;DHT22;30340;52.004;5.908;2022-08-25T00:02:13;25.60;56.20
42037;DHT22;30340;52.004;5.908;2022-08-25T00:04:38;25.50;55.80
42037;DHT22;30340;52.004;5.908;2022-08-25T00:07:05;25.50;55.30
42037;DHT22;30340;52.004;5.908;2022-08-25T00:09:32;25.40;54.90
42037;DHT22;30340;52.004;5.908;2022-08-25T00:11:59;25.40;54.50
42037;DHT22;30340;52.004;5.908;2022-08-25T00:14:30;25.40;54.40
42037;DHT22;30340;52.004;5.908;2022-08-25T00:16:57;25.40;54.30
42037;DHT22;30340;52.004;5.908;2022-08-25T00:19:28;25.40;54.20
42037;DHT22;30340;52.004;5.908;2022-08-25T00:21:55;25.40;54.00
42037;DHT22;30340;52.004;5.908;2022-08-25T00:24:21;25.40;54.00
42037;DHT22;30340;52.004;5.908;2022-08-25T00:26:49;25.40;53.80
42037;DHT22;30340;52.004;5.908;2022-08-25T00:29:15;25.40;53.60
42037;DHT22;30340;52.004;5.908;2022-08-25T00:31:42;25.40;53.50
42037;DHT22;30340;52.004;5.908;2022-08-25T00:34:14;25.40;53.60
42037;DHT22;30340;52.004;5.908;2022-08-25T00:36:40;25.30;53.30
42037;DHT22;30340;52.004;5.908;2022-08-25T00:39:07;25.30;53.30
42037;DHT22;30340;52.004;5.908;2022-08-25T00:41:34;25.40;53.40
42037;DHT22;30340;52.004;5.908;2022-08-25T00:44:04;25.40;53.30
42037;DHT22;30340;52.004;5.908;2022-08-25T00:46:33;25.40;53.20
42037;DHT22;30340;52.004;5.908;2022-08-25T00:49:03;25.40;53.10
42037;DHT22;30340;52.004;5.908;2022-08-25T00:51:43;25.40;53.10
42037;DHT22;30340;52.004;5.908;2022-08-25T00:54:58;25.40;53.70
42037;DHT22;30340;52.004;5.908;2022-08-25T00:57:04;25.40;52.90
42037;DHT22;30340;52.004;5.908;2022-08-25T00:59:31;25.40;52.90
42037;DHT22;30340;52.004;5.908;2022-08-25T01:01:58;25.30;52.80
42037;DHT22;30340;52.004;5.908;2022-08-25T01:04:24;25.30;52.90
42037;DHT22;30340;52.004;5.908;2022-08-25T01:06:50;25.30;52.80
42037;DHT22;30340;52.004;5.908;2022-08-25T01:09:16;25.30;52.60
42037;DHT22;30340;52.004;5.908;2022-08-25T01:11:44;25.30;52.60
42037;DHT22;30340;52.004;5.908;2022-08-25T01:14:13;25.20;52.40
42037;DHT22;30340;52.004;5.908;2022-08-25T01:16:41;25.10;52.50
42037;DHT22;30340;52.004;5.908;2022-08-25T01:19:09;25.10;52.30
42037;DHT22;30340;52.004;5.908;2022-08-25T01:21:39;25.10;52.20
42037;DHT22;30340;52.004;5.908;2022-08-25T01:24:05;25.00;52.20
42037;DHT22;30340;52.004;5.908;2022-08-25T01:26:33;25.00;52.10
42037;DHT22;30340;52.004;5.908;2022-08-25T01:29:01;25.00;52.10
42037;DHT22;30340;52.004;5.908;2022-08-25T01:31:47;25.00;52.10
42037;DHT22;30340;52.004;5.908;2022-08-25T01:34:14;24.90;51.90
42037;DHT22;30340;52.004;5.908;2022-08-25T01:36:42;24.90;51.80
42037;DHT22;30340;52.004;5.908;2022-08-25T01:39:09;24.90;51.60
42037;DHT22;30340;52.004;5.908;2022-08-25T01:41:57;24.90;51.60
42037;DHT22;30340;52.004;5.908;2022-08-25T01:44:23;24.90;51.50
42037;DHT22;30340;52.004;5.908;2022-08-25T01:46:50;24.90;51.30
42037;DHT22;30340;52.004;5.908;2022-08-25T01:49:16;24.90;51.30
42037;DHT22;30340;52.004;5.908;2022-08-25T01:51:47;24.90;51.10
42037;DHT22;30340;52.004;5.908;2022-08-25T01:54:15;24.90;51.10
42037;DHT22;30340;52.004;5.908;2022-08-25T01:56:41;24.90;51.00
42037;DHT22;30340;52.004;5.908;2022-08-25T01:59:06;24.90;51.10
42037;DHT22;30340;52.004;5.908;2022-08-25T02:01:33;24.90;51.10
42037;DHT22;30340;52.004;5.908;2022-08-25T02:03:58;24.90;51.00
42037;DHT22;30340;52.004;5.908;2022-08-25T02:06:29;24.90;50.90
42037;DHT22;30340;52.004;5.908;2022-08-25T02:08:59;24.90;50.90
42037;DHT22;30340;52.004;5.908;2022-08-25T02:11:26;24.90;50.80
42037;DHT22;30340;52.004;5.908;2022-08-25T02:13:52;25.00;50.60
42037;DHT22;30340;52.004;5.908;2022-08-25T02:16:22;25.00;50.50
42037;DHT22;30340;52.004;5.908;2022-08-25T02:18:48;25.00;50.30
42037;DHT22;30340;52.004;5.908;2022-08-25T02:21:14;25.00;50.20
42037;DHT22;30340;52.004;5.908;2022-08-25T02:23:40;25.00;50.00
42037;DHT22;30340;52.004;5.908;2022-08-25T02:26:07;25.00;49.90
42037;DHT22;30340;52.004;5.908;2022-08-25T02:28:33;25.00;49.80
42037;DHT22;30340;52.004;5.908;2022-08-25T02:30:59;25.00;49.70
42037;DHT22;30340;52.004;5.908;2022-08-25T02:33:25;25.00;49.40
42037;DHT22;30340;52.004;5.908;2022-08-25T02:35:50;25.10;48.80
42037;DHT22;30340;52.004;5.908;2022-08-25T02:38:16;25.10;48.60
42037;DHT22;30340;52.004;5.908;2022-08-25T02:40:43;25.10;48.50
42037;DHT22;30340;52.004;5.908;2022-08-25T02:43:08;25.10;48.40
42037;DHT22;30340;52.004;5.908;2022-08-25T02:45:34;25.10;48.40
42037;DHT22;30340;52.004;5.908;2022-08-25T02:48:01;25.20;48.50
42037;DHT22;30340;52.004;5.908;2022-08-25T02:50:27;25.20;48.30
42037;DHT22;30340;52.004;5.908;2022-08-25T02:52:53;25.20;48.30
42037;DHT22;30340;52.004;5.908;2022-08-25T02:55:20;25.20;48.20
42037;DHT22;30340;52.004;5.908;2022-08-25T02:57:46;25.30;48.80
42037;DHT22;30340;52.004;5.908;2022-08-25T03:00:14;25.20;48.10
42037;DHT22;30340;52.004;5.908;2022-08-25T03:02:40;25.10;48.10
42037;DHT22;30340;52.004;5.908;2022-08-25T03:05:10;25.10;48.30
42037;DHT22;30340;52.004;5.908;2022-08-25T03:07:37;25.10;48.40
42037;DHT22;30340;52.004;5.908;2022-08-25T03:10:13;25.00;48.50
42037;DHT22;30340;52.004;5.908;2022-08-25T03:12:39;25.00;48.60
42037;DHT22;30340;52.004;5.908;2022-08-25T03:15:07;24.90;48.60
42037;DHT22;30340;52.004;5.908;2022-08-25T03:17:33;24.90;48.80
42037;DHT22;30340;52.004;5.908;2022-08-25T03:19:59;24.80;49.00
42037;DHT22;30340;52.004;5.908;2022-08-25T03:22:24;24.80;49.00
42037;DHT22;30340;52.004;5.908;2022-08-25T03:24:50;24.70;49.10
42037;DHT22;30340;52.004;5.908;2022-08-25T03:27:15;24.60;49.30
42037;DHT22;30340;52.004;5.908;2022-08-25T03:29:41;24.60;49.30
42037;DHT22;30340;52.004;5.908;2022-08-25T03:32:08;24.60;49.50
42037;DHT22;30340;52.004;5.908;2022-08-25T03:34:33;24.60;49.50
42037;DHT22;30340;52.004;5.908;2022-08-25T03:36:59;24.50;49.60
42037;DHT22;30340;52.004;5.908;2022-08-25T03:39:25;24.50;49.70
42037;DHT22;30340;52.004;5.908;2022-08-25T03:41:52;24.40;49.80
42037;DHT22;30340;52.004;5.908;2022-08-25T03:44:18;24.40;50.00
42037;DHT22;30340;52.004;5.908;2022-08-25T03:46:48;24.30;49.90
42037;DHT22;30340;52.004;5.908;2022-08-25T03:49:17;24.30;50.10
42037;DHT22;30340;52.004;5.908;2022-08-25T03:51:46;24.30;50.00
42037;DHT22;30340;52.004;5.908;2022-08-25T03:54:14;24.30;50.00
42037;DHT22;30340;52.004;5.908;2022-08-25T03:56:40;24.30;50.10
42037;DHT22;30340;52.004;5.908;2022-08-25T03:59:06;24.20;50.20
42037;DHT22;30340;52.004;5.908;2022-08-25T04:01:35;24.20;50.40
42037;DHT22;30340;52.004;5.908;2022-08-25T04:04:01;24.10;50.60
42037;DHT22;30340;52.004;5.908;2022-08-25T04:06:26;24.10;50.70
42037;DHT22;30340;52.004;5.908;2022-08-25T04:08:52;24.10;50.80
42037;DHT22;30340;52.004;5.908;2022-08-25T04:11:20;24.10;51.00
42037;DHT22;30340;52.004;5.908;2022-08-25T04:13:47;24.00;51.00
42037;DHT22;30340;52.004;5.908;2022-08-25T04:16:15;24.00;51.10
42037;DHT22;30340;52.004;5.908;2022-08-25T04:18:42;24.00;51.20
42037;DHT22;30340;52.004;5.908;2022-08-25T04:21:09;23.90;51.30
42037;DHT22;30340;52.004;5.908;2022-08-25T04:23:37;23.90;51.40
42037;DHT22;30340;52.004;5.908;2022-08-25T04:26:11;23.80;51.40
42037;DHT22;30340;52.004;5.908;2022-08-25T04:28:37;23.80;51.50
42037;DHT22;30340;52.004;5.908;2022-08-25T04:31:11;23.80;51.50
42037;DHT22;30340;52.004;5.908;2022-08-25T04:33:38;23.70;51.50
42037;DHT22;30340;52.004;5.908;2022-08-25T04:36:05;23.70;51.60
42037;DHT22;30340;52.004;5.908;2022-08-25T04:38:32;23.70;51.70
42037;DHT22;30340;52.004;5.908;2022-08-25T04:41:00;23.70;51.70
42037;DHT22;30340;52.004;5.908;2022-08-25T04:43:27;23.70;51.80
42037;DHT22;30340;52.004;5.908;2022-08-25T04:45:53;23.60;51.80
42037;DHT22;30340;52.004;5.908;2022-08-25T04:48:20;23.60;51.80
42037;DHT22;30340;52.004;5.908;2022-08-25T04:50:46;23.60;51.90
42037;DHT22;30340;52.004;5.908;2022-08-25T04:53:12;23.60;52.00
42037;DHT22;30340;52.004;5.908;2022-08-25T04:55:46;23.60;52.00
42037;DHT22;30340;52.004;5.908;2022-08-25T04:58:13;23.50;52.10
42037;DHT22;30340;52.004;5.908;2022-08-25T05:00:40;23.40;52.40
42037;DHT22;30340;52.004;5.908;2022-08-25T05:03:06;23.40;52.60
42037;DHT22;30340;52.004;5.908;2022-08-25T05:05:35;23.30;52.60
42037;DHT22;30340;52.004;5.908;2022-08-25T05:08:01;23.30;52.80
42037;DHT22;30340;52.004;5.908;2022-08-25T05:10:26;23.30;52.80
42037;DHT22;30340;52.004;5.908;2022-08-25T05:12:52;23.30;52.80
42037;DHT22;30340;52.004;5.908;2022-08-25T05:15:18;23.30;52.90
42037;DHT22;30340;52.004;5.908;2022-08-25T05:18:02;23.30;53.00
42037;DHT22;30340;52.004;5.908;2022-08-25T05:20:27;23.30;53.00
42037;DHT22;30340;52.004;5.908;2022-08-25T05:22:55;23.30;53.00
42037;DHT22;30340;52.004;5.908;2022-08-25T05:25:21;23.30;53.10
42037;DHT22;30340;52.004;5.908;2022-08-25T05:27:46;23.30;53.10
42037;DHT22;30340;52.004;5.908;2022-08-25T05:30:12;23.30;53.20
42037;DHT22;30340;52.004;5.908;2022-08-25T05:32:37;23.20;53.20
42037;DHT22;30340;52.004;5.908;2022-08-25T05:35:04;23.80;52.60
42037;DHT22;30340;52.004;5.908;2022-08-25T05:37:30;24.50;51.20
42037;DHT22;30340;52.004;5.908;2022-08-25T05:39:56;25.20;49.60
42037;DHT22;30340;52.004;5.908;2022-08-25T05:42:21;25.90;48.60
42037;DHT22;30340;52.004;5.908;2022-08-25T05:44:47;26.30;47.30
42037;DHT22;30340;52.004;5.908;2022-08-25T05:47:13;26.60;46.50
42037;DHT22;30340;52.004;5.908;2022-08-25T05:49:38;26.70;46.00
42037;DHT22;30340;52.004;5.908;2022-08-25T05:52:04;26.10;46.10
42037;DHT22;30340;52.004;5.908;2022-08-25T05:54:30;25.60;47.40
42037;DHT22;30340;52.004;5.908;2022-08-25T05:56:56;25.30;48.30
42037;DHT22;30340;52.004;5.908;2022-08-25T05:59:22;25.00;48.80
42037;DHT22;30340;52.004;5.908;2022-08-25T06:01:48;24.80;49.20
42037;DHT22;30340;52.004;5.908;2022-08-25T06:04:32;24.60;49.70
42037;DHT22;30340;52.004;5.908;2022-08-25T06:06:57;24.50;50.00
42037;DHT22;30340;52.004;5.908;2022-08-25T06:09:24;25.00;49.80
42037;DHT22;30340;52.004;5.908;2022-08-25T06:11:49;26.10;48.00
42037;DHT22;30340;52.004;5.908;2022-08-25T06:14:15;27.10;46.10
42037;DHT22;30340;52.004;5.908;2022-08-25T06:16:41;27.80;44.60
42037;DHT22;30340;52.004;5.908;2022-08-25T06:19:08;28.60;43.40
42037;DHT22;30340;52.004;5.908;2022-08-25T06:21:35;28.90;42.40
42037;DHT22;30340;52.004;5.908;2022-08-25T06:24:01;29.20;41.80
42037;DHT22;30340;52.004;5.908;2022-08-25T06:26:27;29.60;41.20
42037;DHT22;30340;52.004;5.908;2022-08-25T06:28:52;30.10;40.50
42037;DHT22;30340;52.004;5.908;2022-08-25T06:31:19;30.40;39.90
42037;DHT22;30340;52.004;5.908;2022-08-25T06:33:46;30.60;39.60
42037;DHT22;30340;52.004;5.908;2022-08-25T06:36:13;31.00;39.40
42037;DHT22;30340;52.004;5.908;2022-08-25T06:38:39;31.30;38.50
42037;DHT22;30340;52.004;5.908;2022-08-25T06:41:06;31.60;38.30
42037;DHT22;30340;52.004;5.908;2022-08-25T06:43:33;32.30;37.90
42037;DHT22;30340;52.004;5.908;2022-08-25T06:46:12;32.60;37.10
42037;DHT22;30340;52.004;5.908;2022-08-25T06:48:37;32.70;36.90
42037;DHT22;30340;52.004;5.908;2022-08-25T06:51:08;32.60;35.90
42037;DHT22;30340;52.004;5.908;2022-08-25T06:53:34;32.60;36.40
42037;DHT22;30340;52.004;5.908;2022-08-25T06:56:00;33.00;36.30
42037;DHT22;30340;52.004;5.908;2022-08-25T06:58:25;33.00;35.80
42037;DHT22;30340;52.004;5.908;2022-08-25T07:00:51;33.20;35.70
42037;DHT22;30340;52.004;5.908;2022-08-25T07:03:17;33.20;35.60
42037;DHT22;30340;52.004;5.908;2022-08-25T07:05:53;33.70;35.50
42037;DHT22;30340;52.004;5.908;2022-08-25T07:08:19;34.40;35.00
42037;DHT22;30340;52.004;5.908;2022-08-25T07:10:45;34.10;34.30
42037;DHT22;30340;52.004;5.908;2022-08-25T07:13:11;34.20;34.70
42037;DHT22;30340;52.004;5.908;2022-08-25T07:15:41;34.30;34.60
42037;DHT22;30340;52.004;5.908;2022-08-25T07:18:07;34.90;34.40
42037;DHT22;30340;52.004;5.908;2022-08-25T07:20:34;34.60;34.00
42037;DHT22;30340;52.004;5.908;2022-08-25T07:23:03;34.50;34.30
42037;DHT22;30340;52.004;5.908;2022-08-25T07:25:29;34.80;34.10
42037;DHT22;30340;52.004;5.908;2022-08-25T07:27:55;35.10;33.50
42037;DHT22;30340;52.004;5.908;2022-08-25T07:30:21;35.20;33.50
42037;DHT22;30340;52.004;5.908;2022-08-25T07:32:47;35.20;33.30
42037;DHT22;30340;52.004;5.908;2022-08-25T07:35:13;35.40;33.40
42037;DHT22;30340;52.004;5.908;2022-08-25T07:37:50;35.80;33.20
42037;DHT22;30340;52.004;5.908;2022-08-25T07:40:21;36.20;32.90
42037;DHT22;30340;52.004;5.908;2022-08-25T07:42:47;36.20;32.50
42037;DHT22;30340;52.004;5.908;2022-08-25T07:45:14;36.10;32.40
42037;DHT22;30340;52.004;5.908;2022-08-25T07:47:40;36.30;32.60
42037;DHT22;30340;52.004;5.908;2022-08-25T07:50:07;36.70;32.50
42037;DHT22;30340;52.004;5.908;2022-08-25T07:52:33;37.10;32.20
42037;DHT22;30340;52.004;5.908;2022-08-25T07:54:59;37.10;31.80
42037;DHT22;30340;52.004;5.908;2022-08-25T07:57:24;36.90;31.50
42037;DHT22;30340;52.004;5.908;2022-08-25T07:59:51;36.60;31.70
42037;DHT22;30340;52.004;5.908;2022-08-25T08:02:17;36.40;32.30
42037;DHT22;30340;52.004;5.908;2022-08-25T08:04:42;36.20;31.90
42037;DHT22;30340;52.004;5.908;2022-08-25T08:07:09;36.20;32.40
42037;DHT22;30340;52.004;5.908;2022-08-25T08:09:36;36.00;32.50
42037;DHT22;30340;52.004;5.908;2022-08-25T08:12:03;35.80;32.60
42037;DHT22;30340;52.004;5.908;2022-08-25T08:14:29;35.50;33.50
42037;DHT22;30340;52.004;5.908;2022-08-25T08:16:55;35.50;33.20
42037;DHT22;30340;52.004;5.908;2022-08-25T08:19:20;35.40;33.40
42037;DHT22;30340;52.004;5.908;2022-08-25T08:21:47;35.30;34.20
42037;DHT22;30340;52.004;5.908;2022-08-25T08:24:13;35.00;33.90
42037;DHT22;30340;52.004;5.908;2022-08-25T08:26:38;34.90;34.20
42037;DHT22;30340;52.004;5.908;2022-08-25T08:29:04;34.30;34.70
42037;DHT22;30340;52.004;5.908;2022-08-25T08:31:29;34.30;35.10
42037;DHT22;30340;52.004;5.908;2022-08-25T08:33:56;34.10;35.20
42037;DHT22;30340;52.004;5.908;2022-08-25T08:36:22;33.90;35.50
42037;DHT22;30340;52.004;5.908;2022-08-25T08:38:48;33.60;36.20
42037;DHT22;30340;52.004;5.908;2022-08-25T08:52:43;32.30;38.10
42037;DHT22;30340;52.004;5.908;2022-08-25T08:55:48;31.80;38.70
42037;DHT22;30340;52.004;5.908;2022-08-25T08:58:20;31.50;39.10
42037;DHT22;30340;52.004;5.908;2022-08-25T09:00:49;31.50;39.40
42037;DHT22;30340;52.004;5.908;2022-08-25T09:03:38;31.20;39.60
42037;DHT22;30340;52.004;5.908;2022-08-25T09:06:17;30.80;39.70
42037;DHT22;30340;52.004;5.908;2022-08-25T09:08:44;30.60;40.30
42037;DHT22;30340;52.004;5.908;2022-08-25T09:14:16;30.50;40.70
42037;DHT22;30340;52.004;5.908;2022-08-25T09:17:00;30.50;40.60
42037;DHT22;30340;52.004;5.908;2022-08-25T09:19:48;30.50;40.70
42037;DHT22;30340;52.004;5.908;2022-08-25T09:30:16;30.50;40.50
42037;DHT22;30340;52.004;5.908;2022-08-25T09:32:50;30.70;40.50
42037;DHT22;30340;52.004;5.908;2022-08-25T09:35:24;30.70;40.20
42037;DHT22;30340;52.004;5.908;2022-08-25T09:37:58;30.80;40.00
42037;DHT22;30340;52.004;5.908;2022-08-25T09:40:26;30.70;39.80
42037;DHT22;30340;52.004;5.908;2022-08-25T09:42:56;30.80;39.60
42037;DHT22;30340;52.004;5.908;2022-08-25T09:45:43;30.80;39.60
42037;DHT22;30340;52.004;5.908;2022-08-25T09:50:57;30.90;39.20
42037;DHT22;30340;52.004;5.908;2022-08-25T09:53:26;31.00;38.80
42037;DHT22;30340;52.004;5.908;2022-08-25T09:55:58;31.10;38.70
42037;DHT22;30340;52.004;5.908;2022-08-25T09:58:24;31.00;38.70
42037;DHT22;30340;52.004;5.908;2022-08-25T10:01:15;30.90;38.70
42037;DHT22;30340;52.004;5.908;2022-08-25T10:03:59;31.00;38.80
42037;DHT22;30340;52.004;5.908;2022-08-25T10:06:28;31.00;38.00
42037;DHT22;30340;52.004;5.908;2022-08-25T10:08:58;31.00;38.50
42037;DHT22;30340;52.004;5.908;2022-08-25T10:11:41;31.00;38.80
42037;DHT22;30340;52.004;5.908;2022-08-25T10:14:15;31.10;38.70
42037;DHT22;30340;52.004;5.908;2022-08-25T10:16:41;31.20;38.50
42037;DHT22;30340;52.004;5.908;2022-08-25T10:19:10;31.30;39.20
42037;DHT22;30340;52.004;5.908;2022-08-25T10:21:39;31.40;38.50
42037;DHT22;30340;52.004;5.908;2022-08-25T10:24:07;31.50;37.90
42037;DHT22;30340;52.004;5.908;2022-08-25T10:26:57;31.50;38.00
42037;DHT22;30340;52.004;5.908;2022-08-25T10:35:02;31.90;37.70
42037;DHT22;30340;52.004;5.908;2022-08-25T10:37:35;32.00;37.00
42037;DHT22;30340;52.004;5.908;2022-08-25T10:40:20;32.00;36.40
42037;DHT22;30340;52.004;5.908;2022-08-25T10:45:28;32.10;36.40
42037;DHT22;30340;52.004;5.908;2022-08-25T10:48:24;32.20;36.20
42037;DHT22;30340;52.004;5.908;2022-08-25T10:53:54;32.40;35.40
42037;DHT22;30340;52.004;5.908;2022-08-25T10:56:28;32.50;35.10
42037;DHT22;30340;52.004;5.908;2022-08-25T11:07:39;32.50;33.70
42037;DHT22;30340;52.004;5.908;2022-08-25T11:10:11;32.50;33.70
42037;DHT22;30340;52.004;5.908;2022-08-25T11:12:49;32.50;33.00
42037;DHT22;30340;52.004;5.908;2022-08-25T11:15:23;32.40;32.90
42037;DHT22;30340;52.004;5.908;2022-08-25T11:17:56;32.60;33.10
42037;DHT22;30340;52.004;5.908;2022-08-25T11:20:27;32.80;33.30
42037;DHT22;30340;52.004;5.908;2022-08-25T11:23:19;32.90;33.30
42037;DHT22;30340;52.004;5.908;2022-08-25T11:25:51;32.90;33.10
42037;DHT22;30340;52.004;5.908;2022-08-25T11:31:49;33.00;33.00
42037;DHT22;30340;52.004;5.908;2022-08-25T11:34:15;33.10;32.80
42037;DHT22;30340;52.004;5.908;2022-08-25T11:36:53;33.10;32.10
42037;DHT22;30340;52.004;5.908;2022-08-25T11:43:13;33.30;32.00
42037;DHT22;30340;52.004;5.908;2022-08-25T11:51:08;33.30;32.00
42037;DHT22;30340;52.004;5.908;2022-08-25T11:53:36;33.40;31.60
42037;DHT22;30340;52.004;5.908;2022-08-25T11:56:11;33.60;31.60
42037;DHT22;30340;52.004;5.908;2022-08-25T11:58:54;33.70;31.50
42037;DHT22;30340;52.004;5.908;2022-08-25T12:04:40;33.90;31.20
42037;DHT22;30340;52.004;5.908;2022-08-25T12:14:53;33.90;31.00
42037;DHT22;30340;52.004;5.908;2022-08-25T12:17:23;34.10;30.90
42037;DHT22;30340;52.004;5.908;2022-08-25T12:19:53;34.20;30.60
42037;DHT22;30340;52.004;5.908;2022-08-25T12:24:53;33.90;30.40
42037;DHT22;30340;52.004;5.908;2022-08-25T12:35:27;34.10;30.60
42037;DHT22;30340;52.004;5.908;2022-08-25T12:38:01;34.00;30.60
42037;DHT22;30340;52.004;5.908;2022-08-25T12:40:35;34.10;30.80
42037;DHT22;30340;52.004;5.908;2022-08-25T12:43:08;34.30;30.90
42037;DHT22;30340;52.004;5.908;2022-08-25T12:45:41;34.40;30.20
42037;DHT22;30340;52.004;5.908;2022-08-25T12:51:03;34.40;30.30
42037;DHT22;30340;52.004;5.908;2022-08-25T12:54:09;34.60;30.00
42037;DHT22;30340;52.004;5.908;2022-08-25T12:56:41;34.60;30.00
42037;DHT22;30340;52.004;5.908;2022-08-25T12:59:42;34.40;29.80
42037;DHT22;30340;52.004;5.908;2022-08-25T13:07:56;34.60;30.00
42037;DHT22;30340;52.004;5.908;2022-08-25T13:10:41;34.50;30.00
42037;DHT22;30340;52.004;5.908;2022-08-25T13:16:22;34.10;30.20
42037;DHT22;30340;52.004;5.908;2022-08-25T13:18:48;34.10;30.40
42037;DHT22;30340;52.004;5.908;2022-08-25T13:21:33;34.20;30.50
42037;DHT22;30340;52.004;5.908;2022-08-25T13:24:00;34.30;30.50
42037;DHT22;30340;52.004;5.908;2022-08-25T13:26:37;34.30;30.20
42037;DHT22;30340;52.004;5.908;2022-08-25T13:31:32;34.60;30.30
42037;DHT22;30340;52.004;5.908;2022-08-25T13:34:01;34.70;30.10
42037;DHT22;30340;52.004;5.908;2022-08-25T13:36:29;34.80;30.00
42037;DHT22;30340;52.004;5.908;2022-08-25T13:39:17;35.10;30.10
42037;DHT22;30340;52.004;5.908;2022-08-25T13:41:54;35.30;29.80
42037;DHT22;30340;52.004;5.908;2022-08-25T13:44:24;35.50;29.60
42037;DHT22;30340;52.004;5.908;2022-08-25T13:49:40;35.80;29.50
42037;DHT22;30340;52.004;5.908;2022-08-25T13:52:05;35.60;29.20
42037;DHT22;30340;52.004;5.908;2022-08-25T13:54:37;35.50;29.20
42037;DHT22;30340;52.004;5.908;2022-08-25T13:57:24;35.60;29.00
42037;DHT22;30340;52.004;5.908;2022-08-25T13:59:55;35.20;28.90
42037;DHT22;30340;52.004;5.908;2022-08-25T14:02:59;34.90;29.10
42037;DHT22;30340;52.004;5.908;2022-08-25T14:05:35;34.80;29.30
42037;DHT22;30340;52.004;5.908;2022-08-25T14:08:02;35.10;29.40
42037;DHT22;30340;52.004;5.908;2022-08-25T14:10:42;35.40;29.20
42037;DHT22;30340;52.004;5.908;2022-08-25T14:15:51;35.70;28.90
42037;DHT22;30340;52.004;5.908;2022-08-25T14:18:25;35.80;28.70
42037;DHT22;30340;52.004;5.908;2022-08-25T14:20:54;35.90;28.80
42037;DHT22;30340;52.004;5.908;2022-08-25T14:23:25;36.10;28.80
42037;DHT22;30340;52.004;5.908;2022-08-25T14:25:54;36.30;28.70
42037;DHT22;30340;52.004;5.908;2022-08-25T14:28:23;36.50;28.70
42037;DHT22;30340;52.004;5.908;2022-08-25T14:30:53;36.60;28.50
42037;DHT22;30340;52.004;5.908;2022-08-25T14:33:23;36.50;28.30
42037;DHT22;30340;52.004;5.908;2022-08-25T14:35:52;36.30;28.20
42037;DHT22;30340;52.004;5.908;2022-08-25T14:38:19;36.40;28.40
42037;DHT22;30340;52.004;5.908;2022-08-25T14:40:45;36.50;28.40
42037;DHT22;30340;52.004;5.908;2022-08-25T14:43:11;36.60;28.30
42037;DHT22;30340;52.004;5.908;2022-08-25T14:45:40;36.50;28.00
42037;DHT22;30340;52.004;5.908;2022-08-25T14:48:08;36.20;27.80
42037;DHT22;30340;52.004;5.908;2022-08-25T14:50:35;36.20;28.20
42037;DHT22;30340;52.004;5.908;2022-08-25T14:53:02;36.00;28.00
42037;DHT22;30340;52.004;5.908;2022-08-25T14:55:28;35.90;28.20
42037;DHT22;30340;52.004;5.908;2022-08-25T14:57:53;35.70;28.00
42037;DHT22;30340;52.004;5.908;2022-08-25T15:00:19;35.60;28.30
42037;DHT22;30340;52.004;5.908;2022-08-25T15:02:46;35.70;28.40
42037;DHT22;30340;52.004;5.908;2022-08-25T15:05:16;35.80;28.40
42037;DHT22;30340;52.004;5.908;2022-08-25T15:07:43;35.50;28.10
42037;DHT22;30340;52.004;5.908;2022-08-25T15:10:27;35.30;28.30
42037;DHT22;30340;52.004;5.908;2022-08-25T15:12:52;35.40;28.50
42037;DHT22;30340;52.004;5.908;2022-08-25T15:15:18;35.40;28.40
42037;DHT22;30340;52.004;5.908;2022-08-25T15:17:45;35.40;28.50
42037;DHT22;30340;52.004;5.908;2022-08-25T15:20:12;35.50;28.40
42037;DHT22;30340;52.004;5.908;2022-08-25T15:22:38;35.60;28.50
42037;DHT22;30340;52.004;5.908;2022-08-25T15:25:04;35.30;28.10
42037;DHT22;30340;52.004;5.908;2022-08-25T15:27:30;35.00;28.30
42037;DHT22;30340;52.004;5.908;2022-08-25T15:29:56;34.80;28.60
42037;DHT22;30340;52.004;5.908;2022-08-25T15:32:21;34.70;28.80
42037;DHT22;30340;52.004;5.908;2022-08-25T15:34:49;34.50;28.80
42037;DHT22;30340;52.004;5.908;2022-08-25T15:37:16;34.40;28.90
42037;DHT22;30340;52.004;5.908;2022-08-25T15:39:43;34.30;29.10
42037;DHT22;30340;52.004;5.908;2022-08-25T15:42:09;34.20;29.10
42037;DHT22;30340;52.004;5.908;2022-08-25T15:44:37;34.20;29.20
42037;DHT22;30340;52.004;5.908;2022-08-25T15:47:03;34.20;29.30
42037;DHT22;30340;52.004;5.908;2022-08-25T15:49:28;34.10;29.10
42037;DHT22;30340;52.004;5.908;2022-08-25T15:51:54;34.10;29.10
42037;DHT22;30340;52.004;5.908;2022-08-25T15:54:21;34.20;29.30
42037;DHT22;30340;52.004;5.908;2022-08-25T15:56:47;34.00;29.10
42037;DHT22;30340;52.004;5.908;2022-08-25T15:59:13;33.90;29.30
42037;DHT22;30340;52.004;5.908;2022-08-25T16:01:39;33.90;29.40
42037;DHT22;30340;52.004;5.908;2022-08-25T16:04:05;33.80;29.40
42037;DHT22;30340;52.004;5.908;2022-08-25T16:06:32;33.90;29.40
42037;DHT22;30340;52.004;5.908;2022-08-25T16:08:59;34.00;29.50
42037;DHT22;30340;52.004;5.908;2022-08-25T16:11:27;34.00;29.30
42037;DHT22;30340;52.004;5.908;2022-08-25T16:13:55;34.00;29.30
42037;DHT22;30340;52.004;5.908;2022-08-25T16:16:23;33.90;29.30
42037;DHT22;30340;52.004;5.908;2022-08-25T16:18:50;33.90;29.40
42037;DHT22;30340;52.004;5.908;2022-08-25T16:21:21;33.90;29.50
42037;DHT22;30340;52.004;5.908;2022-08-25T16:23:48;33.80;29.50
42037;DHT22;30340;52.004;5.908;2022-08-25T16:26:14;33.80;29.50
42037;DHT22;30340;52.004;5.908;2022-08-25T16:28:41;33.70;29.40
42037;DHT22;30340;52.004;5.908;2022-08-25T16:31:12;33.60;29.40
42037;DHT22;30340;52.004;5.908;2022-08-25T16:33:39;33.70;29.40
42037;DHT22;30340;52.004;5.908;2022-08-25T16:38:34;33.70;29.50
42037;DHT22;30340;52.004;5.908;2022-08-25T16:41:03;33.70;29.40
42037;DHT22;30340;52.004;5.908;2022-08-25T16:43:29;33.60;29.40
42037;DHT22;30340;52.004;5.908;2022-08-25T16:46:04;33.50;29.40
42037;DHT22;30340;52.004;5.908;2022-08-25T16:48:30;33.40;29.40
42037;DHT22;30340;52.004;5.908;2022-08-25T16:50:56;33.40;29.50
42037;DHT22;30340;52.004;5.908;2022-08-25T16:53:22;33.50;29.50
42037;DHT22;30340;52.004;5.908;2022-08-25T16:56:07;33.50;29.50
42037;DHT22;30340;52.004;5.908;2022-08-25T16:58:33;33.60;29.70
42037;DHT22;30340;52.004;5.908;2022-08-25T17:01:17;33.60;29.70
42037;DHT22;30340;52.004;5.908;2022-08-25T17:03:43;33.60;29.60
42037;DHT22;30340;52.004;5.908;2022-08-25T17:06:08;33.60;29.60
42037;DHT22;30340;52.004;5.908;2022-08-25T17:08:34;33.50;29.60
42037;DHT22;30340;52.004;5.908;2022-08-25T17:11:16;33.40;29.50
42037;DHT22;30340;52.004;5.908;2022-08-25T17:13:45;33.40;29.50
42037;DHT22;30340;52.004;5.908;2022-08-25T17:16:12;33.40;29.50
42037;DHT22;30340;52.004;5.908;2022-08-25T17:18:38;33.40;29.60
42037;DHT22;30340;52.004;5.908;2022-08-25T17:21:06;33.40;29.60
42037;DHT22;30340;52.004;5.908;2022-08-25T17:23:33;33.40;29.70
42037;DHT22;30340;52.004;5.908;2022-08-25T17:25:59;33.40;29.80